sensor_id;sensor_type;location;lat;lon;timestamp;P1;durP1;ratioP1;P2;durP2;ratioP2
29902;SDS011;30288;50.514;9.678;2023-04-25T00:00:04;27.95;;;16.52;;
29902;SDS011;30288;50.514;9.678;2023-04-25T00:02:14;26.63;;;16.63;;
29902;SDS011;30288;50.514;9.678;2023-04-25T00:04:21;29.35;;;17.20;;
29902;SDS011;30288;50.514;9.678;2023-04-25T00:06:27;32.13;;;17.75;;
29902;SDS011;30288;50.514;9.678;2023-04-25T00:08:33;25.45;;;16.85;;
29902;SDS011;30288;50.514;9.678;2023-04-25T00:10:38;25.45;;;17.05;;
29902;SDS011;30288;50.514;9.678;2023-04-25T00:12:43;30.55;;;17.02;;
29902;SDS011;30288;50.514;9.678;2023-04-25T00:14:51;29.60;;;17.17;;
29902;SDS011;30288;50.514;9.678;2023-04-25T00:16:58;25.98;;;16.33;;
29902;SDS011;30288;50.514;9.678;2023-04-25T00:19:04;30.83;;;17.45;;
29902;SDS011;30288;50.514;9.678;2023-04-25T00:21:10;27.92;;;16.90;;
29902;SDS011;30288;50.514;9.678;2023-04-25T00:23:16;27.40;;;16.88;;
29902;SDS011;30288;50.514;9.678;2023-04-25T00:25:22;30.30;;;17.40;;
29902;SDS011;30288;50.514;9.678;2023-04-25T00:27:27;32.85;;;16.50;;
29902;SDS011;30288;50.514;9.678;2023-04-25T00:29:32;34.75;;;18.55;;
29902;SDS011;30288;50.514;9.678;2023-04-25T00:31:40;26.85;;;16.25;;
29902;SDS011;30288;50.514;9.678;2023-04-25T00:33:47;25.75;;;14.68;;
29902;SDS011;30288;50.514;9.678;2023-04-25T00:35:52;24.73;;;14.55;;
29902;SDS011;30288;50.514;9.678;2023-04-25T00:37:58;24.05;;;14.57;;
29902;SDS011;30288;50.514;9.678;2023-04-25T00:40:04;26.52;;;14.05;;
29902;SDS011;30288;50.514;9.678;2023-04-25T00:42:11;25.20;;;14.55;;
29902;SDS011;30288;50.514;9.678;2023-04-25T00:44:18;20.20;;;12.63;;
29902;SDS011;30288;50.514;9.678;2023-04-25T00:46:24;22.05;;;12.27;;
29902;SDS011;30288;50.514;9.678;2023-04-25T00:48:32;24.63;;;14.40;;
29902;SDS011;30288;50.514;9.678;2023-04-25T00:50:38;22.55;;;14.35;;
29902;SDS011;30288;50.514;9.678;2023-04-25T00:52:44;22.05;;;14.07;;
29902;SDS011;30288;50.514;9.678;2023-04-25T00:54:50;21.85;;;13.05;;
29902;SDS011;30288;50.514;9.678;2023-04-25T00:56:55;21.55;;;12.88;;
29902;SDS011;30288;50.514;9.678;2023-04-25T00:59:02;23.13;;;14.63;;
29902;SDS011;30288;50.514;9.678;2023-04-25T01:01:08;21.58;;;13.55;;
29902;SDS011;30288;50.514;9.678;2023-04-25T01:03:14;25.80;;;14.30;;
29902;SDS011;30288;50.514;9.678;2023-04-25T01:05:24;22.63;;;14.55;;
29902;SDS011;30288;50.514;9.678;2023-04-25T01:07:32;21.27;;;14.75;;
29902;SDS011;30288;50.514;9.678;2023-04-25T01:09:38;25.98;;;15.38;;
29902;SDS011;30288;50.514;9.678;2023-04-25T01:11:45;25.02;;;15.00;;
29902;SDS011;30288;50.514;9.678;2023-04-25T01:13:50;23.85;;;13.90;;
29902;SDS011;30288;50.514;9.678;2023-04-25T01:15:55;27.73;;;16.17;;
29902;SDS011;30288;50.514;9.678;2023-04-25T01:18:01;24.15;;;15.77;;
29902;SDS011;30288;50.514;9.678;2023-04-25T01:20:07;33.55;;;15.45;;
29902;SDS011;30288;50.514;9.678;2023-04-25T01:22:18;30.27;;;16.63;;
29902;SDS011;30288;50.514;9.678;2023-04-25T01:24:25;28.42;;;16.45;;
29902;SDS011;30288;50.514;9.678;2023-04-25T01:26:31;33.53;;;17.45;;
29902;SDS011;30288;50.514;9.678;2023-04-25T01:28:39;28.17;;;16.42;;
29902;SDS011;30288;50.514;9.678;2023-04-25T01:30:46;25.80;;;16.80;;
29902;SDS011;30288;50.514;9.678;2023-04-25T01:32:51;27.83;;;17.08;;
29902;SDS011;30288;50.514;9.678;2023-04-25T01:34:59;26.15;;;16.30;;
29902;SDS011;30288;50.514;9.678;2023-04-25T01:37:04;28.60;;;15.73;;
29902;SDS011;30288;50.514;9.678;2023-04-25T01:39:12;27.20;;;15.50;;
29902;SDS011;30288;50.514;9.678;2023-04-25T01:41:18;29.20;;;15.73;;
29902;SDS011;30288;50.514;9.678;2023-04-25T01:43:25;25.23;;;13.98;;
29902;SDS011;30288;50.514;9.678;2023-04-25T01:45:30;25.90;;;15.43;;
29902;SDS011;30288;50.514;9.678;2023-04-25T01:47:37;26.48;;;12.55;;
29902;SDS011;30288;50.514;9.678;2023-04-25T01:49:45;23.00;;;13.15;;
29902;SDS011;30288;50.514;9.678;2023-04-25T01:51:50;20.30;;;12.40;;
29902;SDS011;30288;50.514;9.678;2023-04-25T01:53:55;23.98;;;12.90;;
29902;SDS011;30288;50.514;9.678;2023-04-25T01:56:05;21.50;;;12.90;;
29902;SDS011;30288;50.514;9.678;2023-04-25T01:58:12;21.80;;;12.35;;
29902;SDS011;30288;50.514;9.678;2023-04-25T02:00:31;23.45;;;11.60;;
29902;SDS011;30288;50.514;9.678;2023-04-25T02:02:38;19.48;;;10.52;;
29902;SDS011;30288;50.514;9.678;2023-04-25T02:04:54;16.75;;;11.23;;
29902;SDS011;30288;50.514;9.678;2023-04-25T02:07:01;19.33;;;10.80;;
29902;SDS011;30288;50.514;9.678;2023-04-25T02:09:17;17.08;;;9.80;;
29902;SDS011;30288;50.514;9.678;2023-04-25T02:11:29;19.27;;;10.55;;
29902;SDS011;30288;50.514;9.678;2023-04-25T02:13:52;14.10;;;8.77;;
29902;SDS011;30288;50.514;9.678;2023-04-25T02:16:22;17.80;;;9.95;;
29902;SDS011;30288;50.514;9.678;2023-04-25T02:18:27;21.15;;;9.52;;
29902;SDS011;30288;50.514;9.678;2023-04-25T02:20:33;15.90;;;10.32;;
29902;SDS011;30288;50.514;9.678;2023-04-25T02:22:39;16.38;;;9.80;;
29902;SDS011;30288;50.514;9.678;2023-04-25T02:24:44;16.33;;;9.52;;
29902;SDS011;30288;50.514;9.678;2023-04-25T02:26:53;17.10;;;10.25;;
29902;SDS011;30288;50.514;9.678;2023-04-25T02:28:58;19.95;;;11.23;;
29902;SDS011;30288;50.514;9.678;2023-04-25T02:31:04;23.48;;;13.13;;
29902;SDS011;30288;50.514;9.678;2023-04-25T02:33:09;22.90;;;12.48;;
29902;SDS011;30288;50.514;9.678;2023-04-25T02:35:14;19.33;;;12.13;;
29902;SDS011;30288;50.514;9.678;2023-04-25T02:37:20;20.20;;;12.25;;
29902;SDS011;30288;50.514;9.678;2023-04-25T02:39:25;21.75;;;13.55;;
29902;SDS011;30288;50.514;9.678;2023-04-25T02:41:30;22.27;;;12.85;;
29902;SDS011;30288;50.514;9.678;2023-04-25T02:43:39;19.67;;;11.60;;
29902;SDS011;30288;50.514;9.678;2023-04-25T02:45:44;24.02;;;11.32;;
29902;SDS011;30288;50.514;9.678;2023-04-25T02:47:50;19.05;;;11.40;;
29902;SDS011;30288;50.514;9.678;2023-04-25T02:49:55;20.35;;;11.40;;
29902;SDS011;30288;50.514;9.678;2023-04-25T02:52:00;20.25;;;10.70;;
29902;SDS011;30288;50.514;9.678;2023-04-25T02:54:06;19.15;;;10.70;;
29902;SDS011;30288;50.514;9.678;2023-04-25T02:56:15;20.30;;;10.73;;
29902;SDS011;30288;50.514;9.678;2023-04-25T02:58:20;22.70;;;10.73;;
29902;SDS011;30288;50.514;9.678;2023-04-25T03:00:30;20.17;;;10.15;;
29902;SDS011;30288;50.514;9.678;2023-04-25T03:02:35;19.52;;;10.73;;
29902;SDS011;30288;50.514;9.678;2023-04-25T03:04:41;21.75;;;11.13;;
29902;SDS011;30288;50.514;9.678;2023-04-25T03:06:46;15.38;;;10.07;;
29902;SDS011;30288;50.514;9.678;2023-04-25T03:08:54;16.83;;;9.95;;
29902;SDS011;30288;50.514;9.678;2023-04-25T03:11:00;19.65;;;9.52;;
29902;SDS011;30288;50.514;9.678;2023-04-25T03:13:05;18.08;;;9.93;;
29902;SDS011;30288;50.514;9.678;2023-04-25T03:15:11;17.70;;;9.48;;
29902;SDS011;30288;50.514;9.678;2023-04-25T03:17:21;19.33;;;8.93;;
29902;SDS011;30288;50.514;9.678;2023-04-25T03:19:26;14.70;;;7.97;;
29902;SDS011;30288;50.514;9.678;2023-04-25T03:21:33;16.73;;;9.35;;
29902;SDS011;30288;50.514;9.678;2023-04-25T03:23:40;14.60;;;8.10;;
29902;SDS011;30288;50.514;9.678;2023-04-25T03:25:46;13.52;;;7.68;;
29902;SDS011;30288;50.514;9.678;2023-04-25T03:27:51;15.05;;;7.50;;
29902;SDS011;30288;50.514;9.678;2023-04-25T03:29:56;12.02;;;7.25;;
29902;SDS011;30288;50.514;9.678;2023-04-25T03:32:03;18.20;;;8.55;;
29902;SDS011;30288;50.514;9.678;2023-04-25T03:34:11;18.73;;;8.70;;
29902;SDS011;30288;50.514;9.678;2023-04-25T03:36:18;18.48;;;8.68;;
29902;SDS011;30288;50.514;9.678;2023-04-25T03:38:23;19.02;;;8.05;;
29902;SDS011;30288;50.514;9.678;2023-04-25T03:40:29;16.50;;;7.40;;
29902;SDS011;30288;50.514;9.678;2023-04-25T03:42:57;15.80;;;6.93;;
29902;SDS011;30288;50.514;9.678;2023-04-25T03:45:02;16.55;;;7.38;;
29902;SDS011;30288;50.514;9.678;2023-04-25T03:47:08;15.05;;;7.57;;
29902;SDS011;30288;50.514;9.678;2023-04-25T03:49:16;17.83;;;8.15;;
29902;SDS011;30288;50.514;9.678;2023-04-25T03:51:31;18.70;;;7.88;;
29902;SDS011;30288;50.514;9.678;2023-04-25T03:53:36;16.15;;;6.80;;
29902;SDS011;30288;50.514;9.678;2023-04-25T03:55:54;14.25;;;7.22;;
29902;SDS011;30288;50.514;9.678;2023-04-25T03:58:02;16.55;;;7.72;;
29902;SDS011;30288;50.514;9.678;2023-04-25T04:00:12;14.57;;;8.25;;
29902;SDS011;30288;50.514;9.678;2023-04-25T04:02:19;18.20;;;9.10;;
29902;SDS011;30288;50.514;9.678;2023-04-25T04:04:29;17.77;;;8.10;;
29902;SDS011;30288;50.514;9.678;2023-04-25T04:06:36;16.08;;;9.02;;
29902;SDS011;30288;50.514;9.678;2023-04-25T04:08:47;19.50;;;8.82;;
29902;SDS011;30288;50.514;9.678;2023-04-25T04:10:53;17.55;;;8.43;;
29902;SDS011;30288;50.514;9.678;2023-04-25T04:13:00;17.65;;;8.75;;
29902;SDS011;30288;50.514;9.678;2023-04-25T04:15:07;23.48;;;8.80;;
29902;SDS011;30288;50.514;9.678;2023-04-25T04:17:14;15.60;;;7.70;;
29902;SDS011;30288;50.514;9.678;2023-04-25T04:19:20;20.77;;;8.60;;
29902;SDS011;30288;50.514;9.678;2023-04-25T04:21:42;16.30;;;7.75;;
29902;SDS011;30288;50.514;9.678;2023-04-25T04:23:47;16.27;;;8.77;;
29902;SDS011;30288;50.514;9.678;2023-04-25T04:25:55;24.23;;;9.60;;
29902;SDS011;30288;50.514;9.678;2023-04-25T04:28:01;24.20;;;10.95;;
29902;SDS011;30288;50.514;9.678;2023-04-25T04:30:24;19.58;;;9.35;;
29902;SDS011;30288;50.514;9.678;2023-04-25T04:32:33;18.45;;;9.80;;
29902;SDS011;30288;50.514;9.678;2023-04-25T04:34:40;21.75;;;9.45;;
29902;SDS011;30288;50.514;9.678;2023-04-25T04:36:51;19.73;;;8.82;;
29902;SDS011;30288;50.514;9.678;2023-04-25T04:38:57;24.42;;;10.45;;
29902;SDS011;30288;50.514;9.678;2023-04-25T04:41:09;15.38;;;6.45;;
29902;SDS011;30288;50.514;9.678;2023-04-25T04:43:23;21.02;;;10.45;;
29902;SDS011;30288;50.514;9.678;2023-04-25T04:45:42;19.80;;;9.20;;
29902;SDS011;30288;50.514;9.678;2023-04-25T04:48:10;25.15;;;9.70;;
29902;SDS011;30288;50.514;9.678;2023-04-25T04:50:33;18.93;;;8.40;;
29902;SDS011;30288;50.514;9.678;2023-04-25T04:52:59;24.38;;;8.07;;
29902;SDS011;30288;50.514;9.678;2023-04-25T04:55:16;21.00;;;7.90;;
29902;SDS011;30288;50.514;9.678;2023-04-25T04:57:36;31.58;;;8.05;;
29902;SDS011;30288;50.514;9.678;2023-04-25T05:00:13;15.80;;;6.18;;
29902;SDS011;30288;50.514;9.678;2023-04-25T05:02:37;15.65;;;7.22;;
29902;SDS011;30288;50.514;9.678;2023-04-25T05:05:04;17.20;;;5.72;;
29902;SDS011;30288;50.514;9.678;2023-04-25T05:07:27;17.98;;;7.13;;
29902;SDS011;30288;50.514;9.678;2023-04-25T05:10:06;13.05;;;5.97;;
29902;SDS011;30288;50.514;9.678;2023-04-25T05:12:30;18.88;;;6.82;;
29902;SDS011;30288;50.514;9.678;2023-04-25T05:15:12;15.10;;;6.95;;
29902;SDS011;30288;50.514;9.678;2023-04-25T05:17:36;13.55;;;6.10;;
29902;SDS011;30288;50.514;9.678;2023-04-25T05:20:20;12.27;;;6.22;;
29902;SDS011;30288;50.514;9.678;2023-04-25T05:22:48;16.50;;;6.25;;
29902;SDS011;30288;50.514;9.678;2023-04-25T05:25:31;14.27;;;6.47;;
29902;SDS011;30288;50.514;9.678;2023-04-25T05:27:55;13.43;;;6.03;;
29902;SDS011;30288;50.514;9.678;2023-04-25T05:30:14;13.07;;;6.47;;
29902;SDS011;30288;50.514;9.678;2023-04-25T05:32:46;15.18;;;6.25;;
29902;SDS011;30288;50.514;9.678;2023-04-25T05:34:52;16.70;;;6.75;;
29902;SDS011;30288;50.514;9.678;2023-04-25T05:37:01;18.13;;;6.38;;
29902;SDS011;30288;50.514;9.678;2023-04-25T05:39:11;14.80;;;6.60;;
29902;SDS011;30288;50.514;9.678;2023-04-25T05:41:39;15.88;;;6.15;;
29902;SDS011;30288;50.514;9.678;2023-04-25T05:44:07;12.43;;;6.15;;
29902;SDS011;30288;50.514;9.678;2023-04-25T05:48:42;13.55;;;6.40;;
29902;SDS011;30288;50.514;9.678;2023-04-25T05:51:13;13.82;;;5.88;;
29902;SDS011;30288;50.514;9.678;2023-04-25T05:53:52;13.63;;;6.25;;
29902;SDS011;30288;50.514;9.678;2023-04-25T05:55:57;17.00;;;7.10;;
29902;SDS011;30288;50.514;9.678;2023-04-25T05:58:05;11.98;;;6.25;;
29902;SDS011;30288;50.514;9.678;2023-04-25T06:00:11;15.63;;;6.40;;
29902;SDS011;30288;50.514;9.678;2023-04-25T06:02:23;17.67;;;6.72;;
29902;SDS011;30288;50.514;9.678;2023-04-25T06:04:28;16.08;;;6.68;;
29902;SDS011;30288;50.514;9.678;2023-04-25T06:06:35;14.18;;;5.80;;
29902;SDS011;30288;50.514;9.678;2023-04-25T06:08:40;13.27;;;6.40;;
29902;SDS011;30288;50.514;9.678;2023-04-25T06:10:46;17.75;;;7.00;;
29902;SDS011;30288;50.514;9.678;2023-04-25T06:12:52;14.85;;;6.72;;
29902;SDS011;30288;50.514;9.678;2023-04-25T06:15:01;14.88;;;6.38;;
29902;SDS011;30288;50.514;9.678;2023-04-25T06:17:29;16.23;;;6.32;;
29902;SDS011;30288;50.514;9.678;2023-04-25T06:19:35;15.43;;;6.63;;
29902;SDS011;30288;50.514;9.678;2023-04-25T06:21:42;18.58;;;6.35;;
29902;SDS011;30288;50.514;9.678;2023-04-25T06:23:49;10.55;;;5.82;;
29902;SDS011;30288;50.514;9.678;2023-04-25T06:25:57;15.73;;;6.00;;
29902;SDS011;30288;50.514;9.678;2023-04-25T06:28:07;16.65;;;6.72;;
29902;SDS011;30288;50.514;9.678;2023-04-25T06:30:16;14.38;;;5.97;;
29902;SDS011;30288;50.514;9.678;2023-04-25T06:32:27;12.25;;;5.78;;
29902;SDS011;30288;50.514;9.678;2023-04-25T06:34:33;12.20;;;5.43;;
29902;SDS011;30288;50.514;9.678;2023-04-25T06:36:40;10.05;;;4.93;;
29902;SDS011;30288;50.514;9.678;2023-04-25T06:38:49;12.88;;;5.63;;
29902;SDS011;30288;50.514;9.678;2023-04-25T06:40:55;10.25;;;5.32;;
29902;SDS011;30288;50.514;9.678;2023-04-25T06:43:05;12.57;;;6.15;;
29902;SDS011;30288;50.514;9.678;2023-04-25T06:45:32;10.75;;;4.93;;
29902;SDS011;30288;50.514;9.678;2023-04-25T06:47:37;9.98;;;4.78;;
29902;SDS011;30288;50.514;9.678;2023-04-25T06:49:43;12.73;;;5.40;;
29902;SDS011;30288;50.514;9.678;2023-04-25T06:51:48;11.75;;;5.60;;
29902;SDS011;30288;50.514;9.678;2023-04-25T06:53:54;13.25;;;5.00;;
29902;SDS011;30288;50.514;9.678;2023-04-25T06:56:10;10.48;;;5.50;;
29902;SDS011;30288;50.514;9.678;2023-04-25T06:58:23;12.10;;;5.20;;
29902;SDS011;30288;50.514;9.678;2023-04-25T07:00:55;12.98;;;5.40;;
29902;SDS011;30288;50.514;9.678;2023-04-25T07:03:03;14.02;;;5.05;;
29902;SDS011;30288;50.514;9.678;2023-04-25T07:05:08;11.43;;;5.30;;
29902;SDS011;30288;50.514;9.678;2023-04-25T07:07:13;9.13;;;4.70;;
29902;SDS011;30288;50.514;9.678;2023-04-25T07:09:26;8.20;;;3.40;;
29902;SDS011;30288;50.514;9.678;2023-04-25T07:11:33;9.07;;;4.32;;
29902;SDS011;30288;50.514;9.678;2023-04-25T07:13:38;9.82;;;4.15;;
29902;SDS011;30288;50.514;9.678;2023-04-25T07:15:43;8.23;;;3.92;;
29902;SDS011;30288;50.514;9.678;2023-04-25T07:17:54;8.25;;;4.07;;
29902;SDS011;30288;50.514;9.678;2023-04-25T07:19:59;8.40;;;4.53;;
29902;SDS011;30288;50.514;9.678;2023-04-25T07:22:05;10.85;;;4.72;;
29902;SDS011;30288;50.514;9.678;2023-04-25T07:24:13;8.40;;;4.45;;
29902;SDS011;30288;50.514;9.678;2023-04-25T07:26:21;8.15;;;3.60;;
29902;SDS011;30288;50.514;9.678;2023-04-25T07:28:49;8.27;;;4.40;;
29902;SDS011;30288;50.514;9.678;2023-04-25T07:30:54;10.55;;;4.22;;
29902;SDS011;30288;50.514;9.678;2023-04-25T07:33:02;14.23;;;4.75;;
29902;SDS011;30288;50.514;9.678;2023-04-25T07:35:08;12.20;;;4.90;;
29902;SDS011;30288;50.514;9.678;2023-04-25T07:37:15;9.32;;;4.15;;
29902;SDS011;30288;50.514;9.678;2023-04-25T07:39:36;8.77;;;4.60;;
29902;SDS011;30288;50.514;9.678;2023-04-25T07:41:42;8.38;;;3.70;;
29902;SDS011;30288;50.514;9.678;2023-04-25T07:43:52;7.85;;;3.60;;
29902;SDS011;30288;50.514;9.678;2023-04-25T07:45:59;8.50;;;4.05;;
29902;SDS011;30288;50.514;9.678;2023-04-25T07:48:09;7.57;;;3.67;;
29902;SDS011;30288;50.514;9.678;2023-04-25T07:50:15;9.57;;;3.40;;
29902;SDS011;30288;50.514;9.678;2023-04-25T07:52:20;6.57;;;3.33;;
29902;SDS011;30288;50.514;9.678;2023-04-25T07:54:34;6.70;;;3.38;;
29902;SDS011;30288;50.514;9.678;2023-04-25T07:56:47;7.15;;;3.47;;
29902;SDS011;30288;50.514;9.678;2023-04-25T07:58:59;5.70;;;2.80;;
29902;SDS011;30288;50.514;9.678;2023-04-25T08:01:05;7.82;;;3.83;;
29902;SDS011;30288;50.514;9.678;2023-04-25T08:03:23;6.18;;;3.65;;
29902;SDS011;30288;50.514;9.678;2023-04-25T08:05:29;13.80;;;3.92;;
29902;SDS011;30288;50.514;9.678;2023-04-25T08:07:38;8.35;;;3.42;;
29902;SDS011;30288;50.514;9.678;2023-04-25T08:09:45;7.95;;;3.17;;
29902;SDS011;30288;50.514;9.678;2023-04-25T08:11:58;7.28;;;3.88;;
29902;SDS011;30288;50.514;9.678;2023-04-25T08:14:06;6.93;;;3.05;;
29902;SDS011;30288;50.514;9.678;2023-04-25T08:16:12;8.98;;;3.67;;
29902;SDS011;30288;50.514;9.678;2023-04-25T08:18:18;5.95;;;3.08;;
29902;SDS011;30288;50.514;9.678;2023-04-25T08:20:26;6.45;;;3.22;;
29902;SDS011;30288;50.514;9.678;2023-04-25T08:22:34;8.18;;;3.28;;
29902;SDS011;30288;50.514;9.678;2023-04-25T08:25:00;11.30;;;4.32;;
29902;SDS011;30288;50.514;9.678;2023-04-25T08:27:06;7.53;;;3.25;;
29902;SDS011;30288;50.514;9.678;2023-04-25T08:29:12;7.35;;;3.78;;
29902;SDS011;30288;50.514;9.678;2023-04-25T08:31:18;9.98;;;3.90;;
29902;SDS011;30288;50.514;9.678;2023-04-25T08:33:31;5.65;;;2.42;;
29902;SDS011;30288;50.514;9.678;2023-04-25T08:35:49;8.15;;;3.42;;
29902;SDS011;30288;50.514;9.678;2023-04-25T08:37:54;7.10;;;3.58;;
29902;SDS011;30288;50.514;9.678;2023-04-25T08:39:59;5.28;;;2.75;;
29902;SDS011;30288;50.514;9.678;2023-04-25T08:42:28;7.45;;;2.97;;
29902;SDS011;30288;50.514;9.678;2023-04-25T08:44:38;7.35;;;3.17;;
29902;SDS011;30288;50.514;9.678;2023-04-25T08:46:43;7.80;;;2.88;;
29902;SDS011;30288;50.514;9.678;2023-04-25T08:49:01;6.00;;;2.80;;
29902;SDS011;30288;50.514;9.678;2023-04-25T08:51:09;9.30;;;3.30;;
29902;SDS011;30288;50.514;9.678;2023-04-25T08:53:22;7.15;;;3.70;;
29902;SDS011;30288;50.514;9.678;2023-04-25T08:55:33;6.60;;;3.38;;
29902;SDS011;30288;50.514;9.678;2023-04-25T08:57:43;5.60;;;2.80;;
29902;SDS011;30288;50.514;9.678;2023-04-25T08:59:51;6.47;;;2.83;;
29902;SDS011;30288;50.514;9.678;2023-04-25T09:01:57;5.45;;;2.72;;
29902;SDS011;30288;50.514;9.678;2023-04-25T09:04:05;6.07;;;2.50;;
29902;SDS011;30288;50.514;9.678;2023-04-25T09:06:13;6.80;;;2.40;;
29902;SDS011;30288;50.514;9.678;2023-04-25T09:08:19;6.47;;;2.00;;
29902;SDS011;30288;50.514;9.678;2023-04-25T09:10:24;5.80;;;2.13;;
29902;SDS011;30288;50.514;9.678;2023-04-25T09:12:31;5.05;;;1.90;;
29902;SDS011;30288;50.514;9.678;2023-04-25T09:14:37;5.90;;;2.60;;
29902;SDS011;30288;50.514;9.678;2023-04-25T09:17:04;4.07;;;1.95;;
29902;SDS011;30288;50.514;9.678;2023-04-25T09:19:20;12.38;;;3.17;;
29902;SDS011;30288;50.514;9.678;2023-04-25T09:21:51;8.50;;;2.80;;
29902;SDS011;30288;50.514;9.678;2023-04-25T09:23:59;6.32;;;2.95;;
29902;SDS011;30288;50.514;9.678;2023-04-25T09:26:06;5.35;;;2.50;;
29902;SDS011;30288;50.514;9.678;2023-04-25T09:28:12;5.65;;;2.00;;
29902;SDS011;30288;50.514;9.678;2023-04-25T09:30:17;4.00;;;1.67;;
29902;SDS011;30288;50.514;9.678;2023-04-25T09:32:56;3.67;;;1.90;;
29902;SDS011;30288;50.514;9.678;2023-04-25T09:35:03;5.60;;;1.58;;
29902;SDS011;30288;50.514;9.678;2023-04-25T09:37:16;5.82;;;1.70;;
29902;SDS011;30288;50.514;9.678;2023-04-25T09:39:44;3.95;;;1.80;;
29902;SDS011;30288;50.514;9.678;2023-04-25T09:41:53;5.43;;;2.10;;
29902;SDS011;30288;50.514;9.678;2023-04-25T09:43:59;6.40;;;2.13;;
29902;SDS011;30288;50.514;9.678;2023-04-25T09:46:11;4.20;;;1.52;;
29902;SDS011;30288;50.514;9.678;2023-04-25T09:48:22;7.90;;;2.08;;
29902;SDS011;30288;50.514;9.678;2023-04-25T09:50:31;3.88;;;1.77;;
29902;SDS011;30288;50.514;9.678;2023-04-25T09:52:45;7.90;;;2.03;;
29902;SDS011;30288;50.514;9.678;2023-04-25T09:54:54;5.07;;;1.92;;
29902;SDS011;30288;50.514;9.678;2023-04-25T09:57:08;6.95;;;2.25;;
29902;SDS011;30288;50.514;9.678;2023-04-25T09:59:16;5.97;;;2.00;;
29902;SDS011;30288;50.514;9.678;2023-04-25T10:01:25;6.22;;;2.63;;
29902;SDS011;30288;50.514;9.678;2023-04-25T10:03:41;4.32;;;2.03;;
29902;SDS011;30288;50.514;9.678;2023-04-25T10:06:08;6.13;;;2.50;;
29902;SDS011;30288;50.514;9.678;2023-04-25T10:08:19;5.13;;;2.17;;
29902;SDS011;30288;50.514;9.678;2023-04-25T10:10:26;5.93;;;2.88;;
29902;SDS011;30288;50.514;9.678;2023-04-25T10:12:34;5.38;;;2.40;;
29902;SDS011;30288;50.514;9.678;2023-04-25T10:14:41;3.90;;;1.92;;
29902;SDS011;30288;50.514;9.678;2023-04-25T10:16:47;5.20;;;2.72;;
29902;SDS011;30288;50.514;9.678;2023-04-25T10:18:55;6.53;;;2.58;;
29902;SDS011;30288;50.514;9.678;2023-04-25T10:21:00;4.97;;;2.58;;
29902;SDS011;30288;50.514;9.678;2023-04-25T10:23:11;5.32;;;2.28;;
29902;SDS011;30288;50.514;9.678;2023-04-25T10:25:21;6.05;;;2.50;;
29902;SDS011;30288;50.514;9.678;2023-04-25T10:27:27;7.60;;;2.92;;
29902;SDS011;30288;50.514;9.678;2023-04-25T10:29:33;7.45;;;2.83;;
29902;SDS011;30288;50.514;9.678;2023-04-25T10:31:44;7.88;;;3.30;;
29902;SDS011;30288;50.514;9.678;2023-04-25T10:33:50;6.93;;;2.63;;
29902;SDS011;30288;50.514;9.678;2023-04-25T10:35:57;8.85;;;2.95;;
29902;SDS011;30288;50.514;9.678;2023-04-25T10:38:03;6.82;;;2.83;;
29902;SDS011;30288;50.514;9.678;2023-04-25T10:40:10;9.18;;;3.30;;
29902;SDS011;30288;50.514;9.678;2023-04-25T10:42:19;9.80;;;3.10;;
29902;SDS011;30288;50.514;9.678;2023-04-25T10:44:27;9.07;;;3.03;;
29902;SDS011;30288;50.514;9.678;2023-04-25T10:46:32;7.93;;;3.20;;
29902;SDS011;30288;50.514;9.678;2023-04-25T10:48:43;7.68;;;2.85;;
29902;SDS011;30288;50.514;9.678;2023-04-25T10:51:01;8.68;;;3.03;;
29902;SDS011;30288;50.514;9.678;2023-04-25T10:53:14;10.30;;;3.45;;
29902;SDS011;30288;50.514;9.678;2023-04-25T10:55:19;11.93;;;3.58;;
29902;SDS011;30288;50.514;9.678;2023-04-25T10:57:37;10.18;;;3.20;;
29902;SDS011;30288;50.514;9.678;2023-04-25T10:59:47;10.30;;;3.33;;
29902;SDS011;30288;50.514;9.678;2023-04-25T11:01:52;8.57;;;3.05;;
29902;SDS011;30288;50.514;9.678;2023-04-25T11:03:58;11.90;;;3.08;;
29902;SDS011;30288;50.514;9.678;2023-04-25T11:06:04;6.85;;;2.85;;
29902;SDS011;30288;50.514;9.678;2023-04-25T11:08:14;12.50;;;3.30;;
29902;SDS011;30288;50.514;9.678;2023-04-25T11:10:34;10.30;;;3.65;;
29902;SDS011;30288;50.514;9.678;2023-04-25T11:12:42;12.52;;;3.60;;
29902;SDS011;30288;50.514;9.678;2023-04-25T11:14:48;8.95;;;2.90;;
29902;SDS011;30288;50.514;9.678;2023-04-25T11:16:54;9.73;;;3.53;;
29902;SDS011;30288;50.514;9.678;2023-04-25T11:19:01;11.23;;;3.42;;
29902;SDS011;30288;50.514;9.678;2023-04-25T11:21:07;12.68;;;3.08;;
29902;SDS011;30288;50.514;9.678;2023-04-25T11:23:12;10.95;;;3.20;;
29902;SDS011;30288;50.514;9.678;2023-04-25T11:25:17;12.48;;;3.08;;
29902;SDS011;30288;50.514;9.678;2023-04-25T11:27:22;7.22;;;2.53;;
29902;SDS011;30288;50.514;9.678;2023-04-25T11:29:32;12.15;;;2.60;;
29902;SDS011;30288;50.514;9.678;2023-04-25T11:31:40;5.88;;;2.35;;
29902;SDS011;30288;50.514;9.678;2023-04-25T11:33:48;10.00;;;2.88;;
29902;SDS011;30288;50.514;9.678;2023-04-25T11:35:53;13.52;;;2.75;;
29902;SDS011;30288;50.514;9.678;2023-04-25T11:37:59;8.18;;;2.60;;
29902;SDS011;30288;50.514;9.678;2023-04-25T11:40:07;11.15;;;2.80;;
29902;SDS011;30288;50.514;9.678;2023-04-25T11:42:14;9.93;;;2.60;;
29902;SDS011;30288;50.514;9.678;2023-04-25T11:44:19;9.43;;;2.80;;
29902;SDS011;30288;50.514;9.678;2023-04-25T11:46:28;7.95;;;2.70;;
29902;SDS011;30288;50.514;9.678;2023-04-25T11:48:36;8.80;;;2.70;;
29902;SDS011;30288;50.514;9.678;2023-04-25T11:50:42;7.22;;;2.63;;
29902;SDS011;30288;50.514;9.678;2023-04-25T11:52:47;12.02;;;3.50;;
29902;SDS011;30288;50.514;9.678;2023-04-25T11:54:53;8.80;;;2.90;;
29902;SDS011;30288;50.514;9.678;2023-04-25T11:57:00;10.85;;;3.47;;
29902;SDS011;30288;50.514;9.678;2023-04-25T11:59:05;10.07;;;2.72;;
29902;SDS011;30288;50.514;9.678;2023-04-25T12:01:11;14.40;;;3.10;;
29902;SDS011;30288;50.514;9.678;2023-04-25T12:03:19;9.25;;;3.33;;
29902;SDS011;30288;50.514;9.678;2023-04-25T12:05:29;10.40;;;2.65;;
29902;SDS011;30288;50.514;9.678;2023-04-25T12:07:36;10.05;;;2.80;;
29902;SDS011;30288;50.514;9.678;2023-04-25T12:09:42;9.77;;;2.70;;
29902;SDS011;30288;50.514;9.678;2023-04-25T12:11:48;10.43;;;2.75;;
29902;SDS011;30288;50.514;9.678;2023-04-25T12:14:01;9.77;;;2.80;;
29902;SDS011;30288;50.514;9.678;2023-04-25T12:16:08;11.65;;;2.95;;
29902;SDS011;30288;50.514;9.678;2023-04-25T12:18:13;11.38;;;3.05;;
29902;SDS011;30288;50.514;9.678;2023-04-25T12:20:21;9.00;;;2.63;;
29902;SDS011;30288;50.514;9.678;2023-04-25T12:22:29;7.05;;;2.35;;
29902;SDS011;30288;50.514;9.678;2023-04-25T12:24:34;7.90;;;2.80;;
29902;SDS011;30288;50.514;9.678;2023-04-25T12:26:47;9.68;;;3.03;;
29902;SDS011;30288;50.514;9.678;2023-04-25T12:28:53;10.40;;;2.92;;
29902;SDS011;30288;50.514;9.678;2023-04-25T12:30:59;9.68;;;3.13;;
29902;SDS011;30288;50.514;9.678;2023-04-25T12:33:06;9.25;;;2.88;;
29902;SDS011;30288;50.514;9.678;2023-04-25T12:35:12;9.98;;;2.85;;
29902;SDS011;30288;50.514;9.678;2023-04-25T12:37:20;8.88;;;2.70;;
29902;SDS011;30288;50.514;9.678;2023-04-25T12:39:25;9.05;;;2.25;;
29902;SDS011;30288;50.514;9.678;2023-04-25T12:41:30;10.00;;;3.00;;
29902;SDS011;30288;50.514;9.678;2023-04-25T12:43:35;11.52;;;3.10;;
29902;SDS011;30288;50.514;9.678;2023-04-25T12:45:41;7.47;;;2.90;;
29902;SDS011;30288;50.514;9.678;2023-04-25T12:47:46;7.93;;;2.58;;
29902;SDS011;30288;50.514;9.678;2023-04-25T12:49:52;9.32;;;2.92;;
29902;SDS011;30288;50.514;9.678;2023-04-25T12:51:57;6.60;;;2.63;;
29902;SDS011;30288;50.514;9.678;2023-04-25T12:54:05;11.30;;;3.03;;